sim
Sign-in with your pilot id or email,
or register
Callsign
Passwort

Schedule Details

Flight Number: EWG1801
Departure: Tenerife South Airport (GCTS) at 12:00
Arrival: Munich Airport (EDDM) at 16:45
Route: Eurowings Passenger Schedule. Enter filed route here before submitting Pirep.

Weather Information
Getting current METAR information for GCTS 202100Z 10003KT 060V140 9999 FEW015 24/20 Q1018 NOSIG
Getting current METAR information for EDDM 202120Z VRB01KT CAVOK 11/10 Q1016 NOSIG

Schedule Frequency

Route Map